Terminal Aerodrome Forecast
Issued by NWS

Home | Current Version | Previous Version | Text Only | Print | Product List | Glossary On
Versions: 1 2 3 4 5 6 7 8 9 10 11 12 13 14 15 16 17
000
FTUS43 KGRB 061700
TAFATW
TAF
KATW 061720Z 0618/0718 08007KT P6SM SCT025 BKN040
      TEMPO 0618/0620 4SM -SHRA BKN025
     FM062200 12010KT P6SM BKN040
     FM070300 14006KT 6SM BR SCT006 BKN018
     FM070700 15005KT 4SM BR BKN006 WS018/19035KT
     FM071500 18013G22KT P6SM SCT018 BKN100=

USA.gov is the U.S. government's official web portal to all federal, state and local government web resources and services.